createdAt,value
2023-03-08T00:00:02.963Z,1.3
2023-03-08T00:20:02.996Z,1.2
2023-03-08T00:40:02.590Z,1
2023-03-08T01:00:03.046Z,0.8
2023-03-08T01:20:03.184Z,0.7
2023-03-08T01:40:02.966Z,0.6
2023-03-08T02:00:02.484Z,0.4
2023-03-08T02:20:02.347Z,0.4
2023-03-08T02:40:02.808Z,0.2
2023-03-08T03:00:02.138Z,0.3
2023-03-08T03:20:02.760Z,0.1
2023-03-08T03:40:02.188Z,0.1
2023-03-08T04:00:02.686Z,0.3
2023-03-08T04:20:02.541Z,0.3
2023-03-08T04:40:03.094Z,0.5
2023-03-08T05:00:02.371Z,0.4
2023-03-08T05:20:02.750Z,0.4
2023-03-08T05:40:02.087Z,0.5
2023-03-08T06:00:02.595Z,0.6
2023-03-08T06:20:03.078Z,0.7
2023-03-08T06:40:02.407Z,0.8
2023-03-08T07:00:02.794Z,1.1
2023-03-08T07:20:02.535Z,1.3
2023-03-08T07:40:03.060Z,1.6
2023-03-08T08:00:03.934Z,2
2023-03-08T08:20:03.400Z,2.5
2023-03-08T08:40:03.336Z,2.9
2023-03-08T09:00:04.080Z,3.2
2023-03-08T09:20:02.747Z,3.6
2023-03-08T09:40:02.439Z,3.6
2023-03-08T10:00:03.018Z,3.3
2023-03-08T10:20:03.235Z,3.7
2023-03-08T10:40:02.915Z,4.2
2023-03-08T11:00:02.488Z,5
2023-03-08T11:20:02.387Z,5.4
2023-03-08T11:40:03.273Z,5.4
2023-03-08T12:00:03.106Z,5.3
2023-03-08T12:20:03.054Z,5.3
2023-03-08T12:40:02.661Z,5.4
2023-03-08T13:00:03.181Z,5.5
2023-03-08T13:20:03.206Z,5.3
2023-03-08T13:40:02.773Z,5
2023-03-08T14:00:02.677Z,4.7
2023-03-08T14:20:03.020Z,4.5
2023-03-08T14:40:02.866Z,4.2
2023-03-08T15:00:04.092Z,3.8
2023-03-08T15:20:04.054Z,3.4
2023-03-08T15:40:03.401Z,3.3
2023-03-08T16:00:03.268Z,3
2023-03-08T16:20:03.489Z,3
2023-03-08T16:40:03.572Z,2.9
2023-03-08T17:00:02.836Z,2.9
2023-03-08T17:20:03.539Z,2.8
2023-03-08T17:40:03.427Z,2.7
2023-03-08T18:00:04.054Z,2.6
2023-03-08T18:20:03.360Z,2.4
2023-03-08T18:40:03.323Z,2.3
2023-03-08T19:00:03.091Z,2.3
2023-03-08T19:20:03.229Z,2.2
2023-03-08T19:40:04.857Z,2.2
2023-03-08T20:00:03.377Z,2
2023-03-08T20:20:02.951Z,2
2023-03-08T20:40:02.335Z,1.8
2023-03-08T21:00:02.976Z,1.9
2023-03-08T21:20:02.908Z,1.7
2023-03-08T21:40:02.257Z,1.7
2023-03-08T22:00:02.683Z,1.6
2023-03-08T22:20:02.462Z,1.7
2023-03-08T22:40:03.155Z,1.6
2023-03-08T23:00:02.469Z,1.6
2023-03-08T23:20:02.189Z,1.6
2023-03-08T23:40:02.881Z,1.5
